Latest Coastal Weather Observations for Geraldton Airport

IDW60701

Issued at 8:25 am WST Thursday 2 October 2014 (issued every 10 minutes, with the page automatically refreshed every 10 minutes)

About coastal observations | Map of coastal stations | Coastal observations for WA | Marine services | Other Formats
Station Details ID: 008315 Name: GERALDTON AIRPORT Lat: -28.80 Lon: 114.70 Height: 29.7 m
Data from the previous 72 hours. | See also: Recent months at Geraldton Airport
Date/Time
WST
Temp

°C
Wind Pressure Rain
since 9am
mm
Weather Cloud Vis
km
Sea
Height
m
Swell
Dir
 
Speed
knots
Gust
knots
hPa Trend Height
m
Period
s
Dir
02/08:00am 20.4 NW 6 11 1015.5 - 0.0 - Partly cloudy 10 - - - -
02/07:30am 19.0 N 4 5 1015.3 - 0.0 - Partly cloudy 10 - - - -
02/07:00am 18.4 N 4 6 1015.1 - 0.0 - Mostly clear 10 - - - -
02/06:30am 17.7 N 7 9 1014.9 - 0.0 - Mostly clear 10 - - - -
02/06:00am 17.3 NNE 8 10 1014.6 R 0.0 Haze Mostly cloudy 15 - - - -
02/05:30am 17.3 NNE 8 10 1014.3 - 0.0 - Partly cloudy 10 - - - -
02/05:00am 17.1 NNE 7 9 1014.1 - 0.0 - Cloudy 10 - - - -
02/04:30am 16.4 NNE 8 9 1013.7 - 0.0 - Partly cloudy 10 - - - -
02/04:00am 16.8 NNE 8 10 1013.6 - 0.0 - Partly cloudy 10 - - - -
02/03:33am 16.9 N 7 8 1013.3 - 0.0 - Partly cloudy 9 - - - -
02/03:30am 16.7 N 7 8 1013.3 - 0.0 - Partly cloudy 9 - - - -
02/03:13am 16.2 NNE 6 8 1013.1 - 0.0 - - 8 - - - -
02/03:00am 16.5 N 5 6 1013.1 - 0.0 - - 10 - - - -
02/02:43am 17.1 NNE 6 8 1013.5 - 0.0 - Partly cloudy 9 - - - -
02/02:30am 17.9 N 6 8 1013.3 - 0.0 - Partly cloudy 10 - - - -
02/02:21am 18.1 N 6 7 1013.5 - 0.0 - Partly cloudy 10 - - - -
02/02:00am 18.2 NNE 6 8 1013.3 - 0.0 - Partly cloudy 10 - - - -
02/01:30am 18.2 N 5 6 1013.3 - 0.0 - Partly cloudy 10 - - - -
02/01:00am 18.2 N 7 8 1013.4 - 0.0 - - 10 - - - -
02/12:30am 18.5 N 6 7 1013.6 - 0.0 - Partly cloudy 10 - - - -
02/12:00am 18.9 NNE 4 5 1013.8 - 0.0 - Mostly cloudy 10 - - - -
 
Date/Time
WST
Temp

°C
Wind Pressure Rain
since 9am
mm
Weather Cloud Vis
km
Sea
Height
m
Swell
Dir
 
Speed
knots
Gust
knots
hPa Trend Height
m
Period
s
Dir
01/11:30pm 19.2 N 3 4 1013.9 - 0.0 - Partly cloudy 10 - - - -
01/11:00pm 19.7 NNW 6 8 1014.1 - 0.0 - Partly cloudy 10 - - - -
01/10:44pm 19.6 NNW 6 8 1014.4 - 0.0 - Partly cloudy 10 - - - -
01/10:30pm 19.8 NNW 8 11 1014.6 - 0.0 - Partly cloudy 10 - - - -
01/10:00pm 20.0 N 6 10 1014.5 - 0.0 - Partly cloudy 10 - - - -
01/09:50pm 20.1 N 7 11 1014.7 - 0.0 - Partly cloudy 10 - - - -
01/09:30pm 20.2 NNW 10 16 1014.6 - 0.0 - Partly cloudy 10 - - - -
01/09:00pm 20.3 NW 15 22 1014.2 R 0.0 Haze Mostly clear 15 - - - -
01/08:30pm 20.6 NW 15 22 1013.9 - 0.0 - - 10 - - - -
01/08:00pm 20.8 NW 16 22 1013.4 - 0.0 - - 10 - - - -
01/07:22pm 21.2 NW 17 27 1012.9 - 0.0 - - 10 - - - -
01/07:00pm 21.5 NW 18 26 1012.5 - 0.0 - - 10 - - - -
01/06:30pm 21.7 NW 19 29 1012.2 - 0.0 - - 10 - - - -
01/06:00pm 22.3 NW 22 35 1011.8 R 0.0 Haze Mostly clear 20 - - - -
01/05:51pm 22.5 NW 22 34 1011.8 - 0.0 - - 10 - - - -
01/05:30pm 22.8 NW 22 31 1011.7 - 0.0 - - 10 - - - -
01/05:01pm 23.5 NW 19 29 1011.6 - 0.0 - Partly cloudy 10 - - - -
01/05:00pm 23.5 NW 20 29 1011.6 - 0.0 - Partly cloudy 10 - - - -
01/04:25pm 23.9 NW 17 27 1011.3 - 0.0 - - 10 - - - -
01/04:00pm 25.4 NW 18 24 1011.0 - 0.0 - - 10 - - - -
01/03:30pm 27.1 NW 18 23 1010.8 - 0.0 - - 10 - - - -
01/03:00pm 28.4 NW 16 21 1010.7 R 0.0 Fine Partly cloudy 40 - - - -
01/02:30pm 28.9 NW 16 21 1010.7 - 0.0 - - 10 - - - -
01/02:00pm 30.2 NW 16 19 1010.8 - 0.0 - - 10 - - - -
01/01:30pm 30.4 NW 14 25 1010.9 - 0.0 - - 10 - - - -
01/01:00pm 32.3 NW 9 14 1011.1 - 0.0 - - 10 - - - -
01/12:30pm 32.2 WNW 10 14 1011.6 - 0.0 - - 10 - - - -
01/12:00pm 32.3 N 13 15 1011.9 R 0.0 Fine Partly cloudy 40 - - - -
01/11:30am 31.4 N 13 18 1012.5 - 0.0 - - 10 - - - -
01/11:00am 31.7 N 13 17 1012.7 - 0.0 - - 10 - - - -
01/10:30am 30.0 NNE 15 22 1012.9 - 0.0 - - 10 - - - -
01/09:58am 29.4 NNE 20 30 1012.7 - 0.0 - - 10 - - - -
01/09:38am 29.2 NE 23 33 1012.4 - 0.0 - - 10 - - - -
01/09:30am 29.3 NE 23 30 1012.6 - 0.0 - - 10 - - - -
01/09:00am 27.4 ENE 21 29 1012.6 F 0.0 Fine Partly cloudy 40 - - - -
01/08:35am 27.0 ENE 18 29 1013.1 - 0.0 - - 10 - - - -
01/08:30am 26.6 ENE 19 28 1013.2 - 0.0 - - 10 - - - -
01/08:00am 24.9 E 19 26 1013.2 - 0.0 - - 10 - - - -
01/07:30am 23.8 ENE 18 25 1013.3 - 0.0 - - 10 - - - -
01/07:00am 22.7 E 17 24 1013.1 - 0.0 - - 10 - - - -
01/06:30am 20.1 E 11 16 1013.4 - 0.0 - - 10 - - - -
01/06:00am 18.0 SE 6 9 1013.4 F 0.0 Fine Mostly cloudy 40 - - - -
01/05:30am 17.9 E 9 12 1013.5 - 0.0 - - 10 - - - -
01/05:00am 16.9 ESE 6 8 1013.6 - 0.0 - - 10 - - - -
01/04:30am 18.6 SE 9 14 1013.8 - 0.0 - - 10 - - - -
01/04:00am 16.7 ESE 9 10 1013.8 - 0.0 - - 10 - - - -
01/03:30am 15.4 SE 9 11 1013.9 - 0.0 - - 10 - - - -
01/03:00am 13.8 ESE 10 11 1014.1 - 0.0 - - 10 - - - -
01/02:30am 13.0 SSE 6 7 1014.5 - 0.0 - - 10 - - - -
01/02:00am 12.9 SE 7 8 1014.9 - 0.0 - - 10 - - - -
01/01:30am 13.5 SE 6 8 1015.3 - 0.0 - - 10 - - - -
01/01:00am 13.6 SE 5 7 1015.5 - 0.0 - - 10 - - - -
01/12:30am 13.9 SSE 6 8 1015.6 - 0.0 - - 10 - - - -
01/12:00am 14.3 SE 6 7 1016.0 - 0.0 - - 10 - - - -
 
Date/Time
WST
Temp

°C
Wind Pressure Rain
since 9am
mm
Weather Cloud Vis
km
Sea
Height
m
Swell
Dir
 
Speed
knots
Gust
knots
hPa Trend Height
m
Period
s
Dir
30/11:30pm 15.1 SE 8 10 1016.2 - 0.0 - - 10 - - - -
30/11:00pm 15.7 SE 9 13 1016.6 - 0.0 - - 10 - - - -
30/10:35pm 15.9 SSE 8 10 1016.8 - 0.0 - - 10 - - - -
30/10:30pm 15.9 SSE 8 10 1016.8 - 0.0 - - 10 - - - -
30/10:16pm 16.0 SSE 7 9 1017.0 - 0.0 - - 8 - - - -
30/10:00pm 16.3 SSE 8 11 1017.2 - 0.0 - - 10 - - - -
30/09:30pm 16.6 SE 9 13 1017.5 - 0.0 - - 10 - - - -
30/09:00pm 17.7 SSE 11 14 1017.8 F 0.0 Haze Clear 20 - - - -
30/08:30pm 17.9 SSE 11 16 1017.9 - 0.0 - - 10 - - - -
30/08:00pm 17.8 SSE 11 14 1018.1 - 0.0 - - 10 - - - -
30/07:30pm 18.0 SSE 10 14 1018.2 - 0.0 - - 10 - - - -
30/07:00pm 18.3 SSE 11 13 1018.0 - 0.0 - - 10 - - - -
30/06:30pm 18.9 SSE 11 15 1017.9 - 0.0 - - 10 - - - -
30/06:00pm 19.9 S 13 21 1017.8 R 0.0 Fine Clear 30 - - - -
30/05:30pm 20.7 S 16 21 1017.5 - 0.0 - - 10 - - - -
30/05:00pm 21.7 S 15 20 1017.2 - 0.0 - - 10 - - - -
30/04:30pm 22.5 S 14 19 1017.0 - 0.0 - - 10 - - - -
30/04:00pm 23.5 S 15 21 1016.9 - 0.0 - - 10 - - - -
30/03:30pm 23.8 S 14 19 1016.9 - 0.0 - - 10 - - - -
30/03:00pm 24.0 S 16 20 1016.8 F 0.0 Fine Clear 30 - - - -
30/02:30pm 24.2 SSW 17 21 1016.9 - 0.0 - - 10 - - - -
30/02:00pm 25.0 S 13 18 1017.1 - 0.0 - - 10 - - - -
30/01:30pm 26.7 E 7 9 1017.6 - 0.0 - - 10 - - - -
30/01:00pm 25.9 ESE 12 17 1018.0 - 0.0 - - 10 - - - -
30/12:30pm 24.6 ENE 10 15 1018.5 - 0.0 - - 10 - - - -
30/12:00pm 24.2 E 11 15 1019.2 F 0.0 Fine Mostly clear 30 - - - -
30/11:30am 23.4 E 12 17 1019.5 - 0.0 - Mostly clear 10 - - - -
30/11:00am 22.4 SE 12 20 1019.8 - 0.0 - Mostly clear 10 - - - -
30/10:30am 22.5 E 12 15 1020.1 - 0.0 - - 10 - - - -
30/10:00am 20.9 ESE 11 15 1020.5 - 0.0 - - 10 - - - -
30/09:30am 20.1 SE 15 20 1020.6 - 0.0 - Mostly clear 10 - - - -
30/09:00am 18.9 ESE 14 19 1021.0 F 0.0 Fine Mostly clear 30 - - - -
30/08:30am 17.8 ESE 13 18 1021.0 - 0.0 - Mostly clear 10 - - - -
30/08:00am 16.0 ESE 13 18 1021.0 - 0.0 - Mostly clear 10 - - - -
30/07:30am 14.6 ESE 11 16 1020.9 - 0.0 - Mostly clear 10 - - - -
30/07:00am 13.4 SE 9 13 1020.7 - 0.0 - Mostly clear 10 - - - -
30/06:30am 11.5 SE 7 8 1020.5 - 0.0 - Mostly clear 10 - - - -
30/06:00am 10.4 SE 6 8 1020.4 R 0.0 Fine Mostly clear 30 - - - -
30/05:30am 9.7 SE 4 5 1020.1 - 0.0 - - 10 - - - -
30/05:00am 10.0 SE 7 8 1019.8 - 0.0 - - 10 - - - -
30/04:30am 10.1 SSE 6 6 1019.7 - 0.0 - - 10 - - - -
30/04:00am 10.3 SE 5 6 1019.5 - 0.0 - - 10 - - - -
30/03:30am 10.4 ESE 5 6 1019.4 - 0.0 - - 10 - - - -
30/03:00am 11.3 SSE 6 7 1019.5 - 0.0 - - 10 - - - -
30/02:30am 11.6 SSE 6 7 1019.4 - 0.0 - - 10 - - - -
30/02:00am 12.1 SSE 7 8 1019.6 - 0.0 - - 10 - - - -
30/01:30am 12.1 SSE 6 8 1019.8 - 0.0 - - 10 - - - -
30/01:00am 12.3 SSE 7 8 1019.9 - 0.0 - - 10 - - - -
30/12:30am 12.3 SSE 6 7 1020.0 - 0.0 - - 10 - - - -
30/12:00am 12.3 SSE 6 7 1020.3 - 0.0 - - 10 - - - -
 
Date/Time
WST
Temp

°C
Wind Pressure Rain
since 9am
mm
Weather Cloud Vis
km
Sea
Height
m
Swell
Dir
 
Speed
knots
Gust
knots
hPa Trend Height
m
Period
s
Dir
29/11:30pm 12.8 SSE 5 6 1020.3 - 0.0 - Partly cloudy 10 - - - -
29/11:00pm 13.1 SSE 5 6 1020.3 - 0.0 - Partly cloudy 10 - - - -
29/10:30pm 13.3 SE 5 5 1020.4 - 0.0 - - 10 - - - -
29/10:00pm 13.1 SE 4 5 1020.5 - 0.0 - - 10 - - - -
29/09:30pm 14.5 ESE 4 4 1020.5 - 0.0 - Partly cloudy 10 - - - -
29/09:00pm 14.5 E 3 4 1020.7 R 0.0 Fine Mostly cloudy 40 - - - -
29/08:30pm 14.9 ESE 4 4 1020.5 - 0.0 - Mostly cloudy 10 - - - -
29/08:00pm 14.6 E 3 4 1020.1 - 0.0 - Partly cloudy 10 - - - -
29/07:30pm 15.1 SSE 3 4 1019.7 - 0.0 - Partly cloudy 10 - - - -
29/07:00pm 16.3 S 5 6 1019.2 - 0.0 - Mostly clear 10 - - - -
29/06:30pm 17.1 S 7 8 1019.0 - 0.0 - Mostly clear 10 - - - -
29/06:00pm 18.7 S 9 13 1018.7 F 0.0 Fine Mostly clear 40 - - - -
29/05:30pm 19.9 SSW 10 13 1018.5 - 0.0 - Mostly clear 10 - - - -
29/05:00pm 20.6 SSW 10 13 1018.3 - 0.0 - Mostly clear 10 - - - -
29/04:30pm 21.1 SSW 10 13 1018.3 - 0.0 - Mostly clear 10 - - - -
29/04:00pm 21.7 SW 9 13 1018.1 - 0.0 - Mostly clear 10 - - - -
29/03:30pm 21.5 SW 12 15 1018.1 - 0.0 - Mostly clear 10 - - - -
29/03:00pm 21.9 SW 11 16 1018.2 R 0.0 Fine Partly cloudy 40 - - - -
29/02:30pm 22.1 WSW 10 15 1018.1 - 0.0 - Partly cloudy 10 - - - -
29/02:00pm 21.9 SW 10 15 1018.0 - 0.0 - Partly cloudy 10 - - - -
29/01:30pm 21.7 SW 8 12 1018.3 - 0.0 - Partly cloudy 10 - - - -
29/01:00pm 21.6 W 11 15 1018.5 - 0.0 - Partly cloudy 10 - - - -
29/12:30pm 22.3 WSW 10 16 1018.6 - 0.0 - Partly cloudy 10 - - - -
29/12:00pm 22.0 WSW 8 12 1019.0 R 0.0 Fine Partly cloudy 40 - - - -
29/11:30am 20.8 W 9 13 1019.1 - 0.0 - Partly cloudy 10 - - - -
29/11:00am 20.7 W 6 9 1019.2 - 0.0 - Partly cloudy 10 - - - -
29/10:30am 20.2 WSW 10 13 1019.2 - 0.0 - Partly cloudy 10 - - - -
29/10:00am 20.2 WNW 7 8 1019.2 - 0.0 - Mostly clear 10 - - - -
29/09:30am 19.4 SSE 2 6 1019.1 - 0.0 - Partly cloudy 10 - - - -
29/09:00am 19.0 NNE 6 8 1019.1 R 0.0 Distant precip. Partly cloudy 30 - - - -
29/08:30am 16.7 N 7 9 1018.9 - 0.0 - Mostly clear 10 - - - -

Other Formats:

Comma delimited format used in spreadsheet applications
http://www.bom.gov.au/fwo/IDW60701/IDW60701.94403.axf

JavaScript Object Notation format (JSON) in row-major order
http://www.bom.gov.au/fwo/IDW60701/IDW60701.94403.json